createdAt,value
2024-02-21T00:00:17.209Z,2.65
2024-02-21T00:02:43.931Z,2.50
2024-02-21T00:05:10.722Z,3.00
2024-02-21T00:07:37.629Z,2.63
2024-02-21T00:10:04.665Z,2.00
2024-02-21T00:12:31.452Z,2.03
2024-02-21T00:14:58.166Z,2.15
2024-02-21T00:17:27.137Z,2.53
2024-02-21T00:19:53.871Z,2.17
2024-02-21T00:22:20.635Z,2.78
2024-02-21T00:24:47.319Z,2.67
2024-02-21T00:27:14.181Z,1.67
2024-02-21T00:29:40.832Z,2.10
2024-02-21T00:32:07.643Z,1.90
2024-02-21T00:34:34.734Z,2.20
2024-02-21T00:37:01.518Z,2.17
2024-02-21T00:39:28.178Z,2.92
2024-02-21T00:41:54.831Z,2.53
2024-02-21T00:44:21.587Z,2.17
2024-02-21T00:46:48.458Z,2.15
2024-02-21T00:49:15.299Z,1.95
2024-02-21T00:51:42.014Z,1.70
2024-02-21T00:54:08.724Z,2.20
2024-02-21T00:56:35.576Z,1.85
2024-02-21T00:59:02.310Z,1.70
2024-02-21T01:01:29.131Z,1.98
2024-02-21T01:03:55.996Z,2.20
2024-02-21T01:06:22.907Z,2.38
2024-02-21T01:08:49.663Z,1.92
2024-02-21T01:11:17.083Z,2.45
2024-02-21T01:13:43.989Z,2.10
2024-02-21T01:16:10.824Z,2.13
2024-02-21T01:18:38.900Z,1.80
2024-02-21T01:21:07.972Z,2.08
2024-02-21T01:23:36.140Z,2.25
2024-02-21T01:26:03.322Z,1.90
2024-02-21T01:28:30.193Z,1.30
2024-02-21T01:30:57.118Z,2.55
2024-02-21T01:33:23.836Z,2.20
2024-02-21T01:35:51.318Z,2.03
2024-02-21T01:38:18.211Z,1.92
2024-02-21T01:40:45.185Z,2.28
2024-02-21T01:43:27.050Z,2.08
2024-02-21T01:45:54.954Z,1.88
2024-02-21T01:48:22.705Z,2.45
2024-02-21T01:50:50.474Z,2.00
2024-02-21T01:53:19.887Z,1.50
2024-02-21T01:55:47.223Z,1.60
2024-02-21T01:58:15.273Z,1.73
2024-02-21T02:00:43.904Z,1.65
2024-02-21T02:03:17.648Z,1.52
2024-02-21T02:05:47.161Z,1.90
2024-02-21T02:08:16.197Z,1.65
2024-02-21T02:10:43.158Z,1.77
2024-02-21T02:13:10.113Z,1.85
2024-02-21T02:18:20.337Z,1.63
2024-02-21T02:20:47.887Z,1.60
2024-02-21T02:23:31.170Z,2.25
2024-02-21T02:25:57.945Z,2.00
2024-02-21T02:28:24.921Z,1.58
2024-02-21T02:30:51.721Z,1.92
2024-02-21T02:33:18.941Z,1.77
2024-02-21T02:35:45.923Z,1.30
2024-02-21T02:38:14.135Z,1.40
2024-02-21T02:40:42.279Z,1.60
2024-02-21T02:43:09.425Z,1.65
2024-02-21T02:45:36.177Z,1.45
2024-02-21T02:48:03.333Z,1.33
2024-02-21T02:50:30.190Z,1.45
2024-02-21T02:52:57.093Z,1.70
2024-02-21T02:55:24.072Z,1.60
2024-02-21T02:57:50.890Z,2.08
2024-02-21T03:00:17.702Z,1.75
2024-02-21T03:02:45.902Z,1.77
2024-02-21T03:05:15.566Z,1.70
2024-02-21T03:07:42.414Z,1.58
2024-02-21T03:10:09.761Z,1.55
2024-02-21T03:12:36.596Z,1.48
2024-02-21T03:15:03.845Z,1.63
2024-02-21T03:17:30.584Z,1.50
2024-02-21T03:19:57.311Z,1.45
2024-02-21T03:22:24.115Z,1.25
2024-02-21T03:24:50.785Z,1.70
2024-02-21T03:27:17.453Z,1.75
2024-02-21T03:29:44.601Z,1.52
2024-02-21T03:32:11.491Z,1.45
2024-02-21T03:34:38.270Z,1.33
2024-02-21T03:37:05.023Z,1.38
2024-02-21T03:39:33.810Z,1.27
2024-02-21T03:42:05.516Z,1.73
2024-02-21T03:44:33.064Z,0.93
2024-02-21T03:47:01.205Z,2.25
2024-02-21T03:49:28.081Z,1.17
2024-02-21T03:51:54.785Z,1.10
2024-02-21T03:54:21.511Z,0.95
2024-02-21T03:56:48.733Z,1.30
2024-02-21T03:59:15.421Z,1.27
2024-02-21T04:01:42.080Z,1.48
2024-02-21T04:04:08.878Z,1.90
2024-02-21T04:06:35.541Z,1.17
2024-02-21T04:09:02.209Z,1.38
2024-02-21T04:11:28.982Z,1.27
2024-02-21T04:13:55.916Z,1.70
2024-02-21T04:16:22.918Z,1.23
2024-02-21T04:18:49.673Z,1.48
2024-02-21T04:21:17.676Z,1.20
2024-02-21T04:23:44.334Z,1.83
2024-02-21T04:26:10.952Z,1.35
2024-02-21T04:28:37.746Z,1.20
2024-02-21T04:31:04.647Z,1.02
2024-02-21T04:33:31.356Z,1.60
2024-02-21T04:35:59.703Z,0.88
2024-02-21T04:38:26.422Z,0.93
2024-02-21T04:40:53.364Z,1.55
2024-02-21T04:43:20.165Z,1.35
2024-02-21T04:45:46.889Z,1.30
2024-02-21T04:48:13.658Z,2.03
2024-02-21T04:50:42.243Z,1.40
2024-02-21T04:53:08.968Z,1.00
2024-02-21T04:55:35.946Z,1.20
2024-02-21T04:58:03.425Z,1.05
2024-02-21T05:00:30.565Z,1.48
2024-02-21T05:02:57.292Z,3.17
2024-02-21T05:05:24.145Z,1.33
2024-02-21T05:07:50.941Z,1.33
2024-02-21T05:10:18.764Z,1.15
2024-02-21T05:12:45.685Z,1.33
2024-02-21T05:15:12.365Z,1.13
2024-02-21T05:17:39.217Z,3.35
2024-02-21T05:20:06.966Z,1.70
2024-02-21T05:22:33.774Z,1.25
2024-02-21T05:25:00.428Z,1.58
2024-02-21T05:27:27.594Z,2.28
2024-02-21T05:29:55.139Z,1.92
2024-02-21T05:32:21.798Z,2.33
2024-02-21T05:34:52.199Z,2.28
2024-02-21T05:37:19.059Z,2.25
2024-02-21T05:39:45.846Z,3.70
2024-02-21T05:42:12.556Z,2.22
2024-02-21T05:44:39.205Z,3.05
2024-02-21T05:47:06.365Z,3.05
2024-02-21T05:49:33.328Z,3.67
2024-02-21T05:52:00.261Z,1.67
2024-02-21T05:54:26.952Z,1.85
2024-02-21T05:56:54.823Z,1.40
2024-02-21T05:59:21.664Z,2.08
2024-02-21T06:01:58.650Z,2.05
2024-02-21T06:04:25.409Z,2.53
2024-02-21T06:06:52.217Z,1.77
2024-02-21T06:09:18.985Z,1.88
2024-02-21T06:11:47.508Z,2.10
2024-02-21T06:14:14.397Z,1.58
2024-02-21T06:16:41.187Z,2.00
2024-02-21T06:19:10.339Z,1.70
2024-02-21T06:21:37.911Z,1.60
2024-02-21T06:24:05.112Z,1.90
2024-02-21T06:26:31.801Z,1.80
2024-02-21T06:29:00.832Z,1.15
2024-02-21T06:31:28.675Z,1.85
2024-02-21T06:33:55.577Z,1.70
2024-02-21T06:36:22.287Z,2.28
2024-02-21T06:38:49.012Z,1.27
2024-02-21T06:41:17.234Z,1.30
2024-02-21T06:43:44.249Z,1.65
2024-02-21T06:46:10.929Z,1.83
2024-02-21T06:48:37.862Z,1.60
2024-02-21T06:51:05.103Z,1.80
2024-02-21T06:53:31.759Z,1.70
2024-02-21T06:55:59.172Z,1.55
2024-02-21T06:58:26.133Z,1.80
2024-02-21T07:00:52.951Z,1.70
2024-02-21T07:03:19.794Z,2.13
2024-02-21T07:05:46.631Z,2.33
2024-02-21T07:08:16.552Z,3.25
2024-02-21T07:10:43.532Z,1.75
2024-02-21T07:13:10.606Z,1.48
2024-02-21T07:15:38.813Z,3.28
2024-02-21T07:18:05.678Z,1.08
2024-02-21T07:20:34.575Z,1.50
2024-02-21T07:23:01.366Z,1.77
2024-02-21T07:25:28.241Z,2.22
2024-02-21T07:27:55.135Z,2.58
2024-02-21T07:30:21.943Z,1.65
2024-02-21T07:32:51.600Z,1.63
2024-02-21T07:35:25.182Z,2.17
2024-02-21T07:38:47.264Z,1.98
2024-02-21T07:41:14.116Z,3.03
2024-02-21T07:43:41.007Z,1.50
2024-02-21T07:46:07.690Z,1.83
2024-02-21T07:48:35.637Z,1.50
2024-02-21T07:51:03.030Z,1.02
2024-02-21T07:53:29.698Z,1.25
2024-02-21T07:55:56.584Z,1.13
2024-02-21T07:58:23.266Z,1.55
2024-02-21T08:00:50.317Z,1.20
2024-02-21T08:03:18.770Z,1.35
2024-02-21T08:05:45.685Z,1.45
2024-02-21T08:08:13.807Z,1.67
2024-02-21T08:10:40.814Z,0.90
2024-02-21T08:13:08.487Z,1.42
2024-02-21T08:15:35.795Z,1.08
2024-02-21T08:18:04.852Z,1.52
2024-02-21T08:20:31.655Z,2.33
2024-02-21T08:22:58.396Z,2.08
2024-02-21T08:25:25.151Z,1.15
2024-02-21T08:27:52.680Z,1.52
2024-02-21T08:30:19.550Z,1.20
2024-02-21T08:32:46.226Z,0.82
2024-02-21T08:35:13.812Z,1.40
2024-02-21T08:37:40.557Z,2.50
2024-02-21T08:40:09.590Z,3.33
2024-02-21T08:42:37.613Z,4.18
2024-02-21T08:45:05.003Z,1.10
2024-02-21T08:47:31.823Z,5.78
2024-02-21T08:49:58.683Z,2.10
2024-02-21T08:52:25.465Z,1.17
2024-02-21T08:54:54.521Z,1.63
2024-02-21T08:57:21.468Z,1.48
2024-02-21T08:59:48.322Z,0.82
2024-02-21T09:02:17.330Z,0.80
2024-02-21T09:04:45.006Z,0.80
2024-02-21T09:07:12.231Z,0.98
2024-02-21T09:09:40.841Z,0.60
2024-02-21T09:12:08.244Z,1.25
2024-02-21T09:14:35.362Z,1.55
2024-02-21T09:17:02.214Z,0.90
2024-02-21T09:19:29.037Z,1.13
2024-02-21T09:21:55.835Z,1.33
2024-02-21T09:24:22.530Z,1.05
2024-02-21T09:26:49.791Z,1.38
2024-02-21T09:29:17.672Z,1.23
2024-02-21T09:31:44.494Z,2.67
2024-02-21T09:34:12.105Z,1.02
2024-02-21T09:36:41.347Z,2.72
2024-02-21T09:39:08.058Z,0.90
2024-02-21T09:41:34.767Z,0.85
2024-02-21T09:44:01.493Z,0.73
2024-02-21T09:46:44.359Z,1.55
2024-02-21T09:49:36.182Z,1.58
2024-02-21T09:52:04.033Z,1.50
2024-02-21T09:54:32.211Z,0.88
2024-02-21T09:56:59.496Z,0.90
2024-02-21T09:59:26.218Z,0.90
2024-02-21T10:01:52.963Z,1.08
2024-02-21T10:04:21.219Z,0.93
2024-02-21T10:06:48.175Z,0.80
2024-02-21T10:09:23.997Z,1.10
2024-02-21T10:11:52.027Z,0.63
2024-02-21T10:14:19.452Z,1.33
2024-02-21T10:16:50.418Z,0.77
2024-02-21T10:19:18.648Z,0.47
2024-02-21T10:21:46.015Z,0.80
2024-02-21T10:24:13.396Z,0.60
2024-02-21T10:26:40.181Z,0.55
2024-02-21T10:29:07.161Z,0.77
2024-02-21T10:31:34.541Z,0.50
2024-02-21T10:34:06.376Z,0.73
2024-02-21T10:36:33.405Z,0.38
2024-02-21T10:39:00.180Z,1.65
2024-02-21T10:41:28.882Z,3.70
2024-02-21T10:43:56.566Z,2.30
2024-02-21T10:46:24.990Z,1.60
2024-02-21T10:49:08.927Z,2.00
2024-02-21T10:51:36.699Z,1.67
2024-02-21T10:54:13.020Z,1.55
2024-02-21T10:56:41.171Z,1.48
2024-02-21T10:59:08.496Z,2.08
2024-02-21T11:01:37.045Z,1.20
2024-02-21T11:04:05.657Z,1.23
2024-02-21T11:06:32.578Z,2.78
2024-02-21T11:09:02.206Z,3.47
2024-02-21T11:11:34.852Z,1.13
2024-02-21T11:14:11.871Z,1.20
2024-02-21T11:16:41.134Z,2.85
2024-02-21T11:19:11.089Z,1.85
2024-02-21T11:21:38.303Z,1.60
2024-02-21T11:24:05.648Z,1.25
2024-02-21T11:26:33.016Z,1.10
2024-02-21T11:29:00.786Z,1.10
2024-02-21T11:31:29.111Z,1.77
2024-02-21T11:33:56.484Z,1.02
2024-02-21T11:36:25.971Z,0.85
2024-02-21T11:38:54.202Z,1.17
2024-02-21T11:41:22.607Z,0.88
2024-02-21T11:43:51.727Z,1.40
2024-02-21T11:46:18.690Z,0.98
2024-02-21T11:48:50.951Z,0.90
2024-02-21T11:51:32.736Z,1.30
2024-02-21T11:54:02.048Z,2.03
2024-02-21T11:56:29.297Z,1.73
2024-02-21T11:58:56.142Z,2.33
2024-02-21T12:01:23.108Z,1.55
2024-02-21T12:03:52.826Z,1.40
2024-02-21T12:06:22.522Z,1.17
2024-02-21T12:08:49.585Z,1.35
2024-02-21T12:11:22.622Z,1.52
2024-02-21T12:14:01.457Z,1.10
2024-02-21T12:16:30.289Z,1.30
2024-02-21T12:18:57.971Z,1.27
2024-02-21T12:21:25.953Z,1.20
2024-02-21T12:23:52.732Z,1.60
2024-02-21T12:26:20.622Z,1.83
2024-02-21T12:28:48.719Z,1.70
2024-02-21T12:31:17.212Z,1.00
2024-02-21T12:33:44.865Z,1.17
2024-02-21T12:36:11.712Z,1.42
2024-02-21T12:38:38.562Z,1.00
2024-02-21T12:41:05.483Z,1.00
2024-02-21T12:43:32.968Z,1.20
2024-02-21T12:45:59.797Z,1.10
2024-02-21T12:48:26.551Z,1.17
2024-02-21T12:50:53.317Z,1.10
2024-02-21T12:53:26.461Z,1.70
2024-02-21T12:55:59.893Z,1.55
2024-02-21T12:58:26.760Z,1.17
2024-02-21T13:00:54.319Z,1.33
2024-02-21T13:03:22.560Z,1.10
2024-02-21T13:05:49.600Z,1.70
2024-02-21T13:08:16.478Z,1.00
2024-02-21T13:10:43.676Z,0.70
2024-02-21T13:13:10.602Z,1.20
2024-02-21T13:15:40.273Z,1.48
2024-02-21T13:18:07.248Z,1.20
2024-02-21T13:20:34.081Z,1.25
2024-02-21T13:23:01.092Z,1.10
2024-02-21T13:25:27.976Z,1.65
2024-02-21T13:27:54.762Z,1.00
2024-02-21T13:30:21.527Z,1.30
2024-02-21T13:32:48.442Z,1.30
2024-02-21T13:35:15.711Z,0.90
2024-02-21T13:37:43.007Z,1.60
2024-02-21T13:40:10.209Z,1.55
2024-02-21T13:42:37.685Z,1.30
2024-02-21T13:45:06.385Z,1.10
2024-02-21T13:47:34.478Z,1.10
2024-02-21T13:50:01.328Z,1.25
2024-02-21T13:52:28.340Z,1.92
2024-02-21T13:54:55.153Z,1.58
2024-02-21T13:57:21.899Z,1.35
2024-02-21T13:59:48.753Z,1.23
2024-02-21T14:02:15.590Z,0.90
2024-02-21T14:04:43.460Z,1.85
2024-02-21T14:07:10.218Z,0.80
2024-02-21T14:09:36.972Z,1.02
2024-02-21T14:12:03.993Z,0.80
2024-02-21T14:14:30.800Z,1.17
2024-02-21T14:16:57.597Z,1.35
2024-02-21T14:19:24.483Z,2.05
2024-02-21T14:21:51.344Z,1.98
2024-02-21T14:24:18.125Z,1.73
2024-02-21T14:26:44.791Z,1.40
2024-02-21T14:29:12.253Z,1.33
2024-02-21T14:31:39.110Z,1.10
2024-02-21T14:34:05.897Z,1.20
2024-02-21T14:36:34.042Z,1.38
2024-02-21T14:39:00.842Z,1.02
2024-02-21T14:41:28.737Z,1.50
2024-02-21T14:43:57.573Z,2.03
2024-02-21T14:46:25.092Z,1.88
2024-02-21T14:48:51.952Z,1.63
2024-02-21T14:51:18.867Z,2.08
2024-02-21T14:53:45.498Z,1.67
2024-02-21T14:56:16.030Z,2.08
2024-02-21T14:58:42.979Z,1.73
2024-02-21T15:01:09.882Z,1.48
2024-02-21T15:03:36.914Z,1.90
2024-02-21T15:06:04.196Z,1.70
2024-02-21T15:08:30.989Z,1.20
2024-02-21T15:10:57.745Z,2.80
2024-02-21T15:13:24.606Z,1.73
2024-02-21T15:15:52.440Z,2.28
2024-02-21T15:18:19.462Z,1.10
2024-02-21T15:20:47.028Z,1.45
2024-02-21T15:23:13.847Z,1.45
2024-02-21T15:25:40.746Z,1.70
2024-02-21T15:28:07.508Z,1.00
2024-02-21T15:30:34.352Z,2.03
2024-02-21T15:33:04.885Z,1.48
2024-02-21T15:35:32.294Z,1.38
2024-02-21T15:37:59.296Z,2.58
2024-02-21T15:40:26.094Z,1.83
2024-02-21T15:42:52.952Z,1.73
2024-02-21T15:45:19.792Z,1.45
2024-02-21T15:47:46.564Z,1.33
2024-02-21T15:50:13.292Z,1.70
2024-02-21T15:52:40.095Z,4.78
2024-02-21T15:55:11.207Z,1.85
2024-02-21T15:57:38.714Z,2.50
2024-02-21T16:00:07.070Z,4.72
2024-02-21T16:02:33.802Z,3.47
2024-02-21T16:05:00.713Z,4.43
2024-02-21T16:07:27.997Z,4.90
2024-02-21T16:09:54.774Z,2.50
2024-02-21T16:12:24.522Z,2.78
2024-02-21T16:14:53.931Z,3.00
2024-02-21T16:17:20.679Z,3.05
2024-02-21T16:19:47.749Z,2.85
2024-02-21T16:22:14.515Z,3.35
2024-02-21T16:24:41.177Z,1.95
2024-02-21T16:27:10.615Z,1.80
2024-02-21T16:29:38.083Z,2.08
2024-02-21T16:32:05.230Z,2.38
2024-02-21T16:34:32.412Z,3.28
2024-02-21T16:36:59.551Z,3.03
2024-02-21T16:39:26.628Z,3.70
2024-02-21T16:41:56.584Z,1.90
2024-02-21T16:44:23.788Z,4.22
2024-02-21T16:46:51.240Z,3.13
2024-02-21T16:49:18.922Z,2.50
2024-02-21T16:51:45.894Z,3.40
2024-02-21T16:54:12.637Z,3.22
2024-02-21T16:56:39.345Z,3.17
2024-02-21T16:59:06.232Z,2.65
2024-02-21T17:01:40.589Z,1.50
2024-02-21T17:04:09.260Z,2.80
2024-02-21T17:06:37.580Z,3.10
2024-02-21T17:09:05.885Z,2.92
2024-02-21T17:11:32.891Z,3.47
2024-02-21T17:13:59.728Z,3.63
2024-02-21T17:16:26.530Z,3.67
2024-02-21T17:18:53.761Z,3.50
2024-02-21T17:21:20.587Z,3.22
2024-02-21T17:23:47.294Z,3.13
2024-02-21T17:26:13.972Z,1.88
2024-02-21T17:28:41.056Z,1.48
2024-02-21T17:31:07.725Z,1.67
2024-02-21T17:33:34.624Z,2.42
2024-02-21T17:36:02.547Z,1.63
2024-02-21T17:38:30.806Z,1.20
2024-02-21T17:41:05.530Z,1.73
2024-02-21T17:43:33.979Z,2.15
2024-02-21T17:46:02.013Z,2.60
2024-02-21T17:48:29.010Z,3.47
2024-02-21T17:50:56.684Z,3.45
2024-02-21T17:53:23.676Z,3.53
2024-02-21T17:55:50.440Z,3.30
2024-02-21T17:58:17.287Z,2.13
2024-02-21T18:00:46.380Z,3.38
2024-02-21T18:03:13.955Z,1.80
2024-02-21T18:05:40.852Z,1.85
2024-02-21T18:08:08.851Z,2.22
2024-02-21T18:10:39.105Z,2.78
2024-02-21T18:13:11.422Z,2.97
2024-02-21T18:15:38.667Z,1.42
2024-02-21T18:18:05.586Z,1.65
2024-02-21T18:20:32.399Z,2.83
2024-02-21T18:22:59.157Z,1.38
2024-02-21T18:25:26.763Z,3.08
2024-02-21T18:27:53.592Z,3.47
2024-02-21T18:30:20.448Z,3.60
2024-02-21T18:32:48.298Z,3.58
2024-02-21T18:35:15.631Z,2.75
2024-02-21T18:37:43.332Z,1.23
2024-02-21T18:40:12.823Z,2.08
2024-02-21T18:42:41.849Z,1.95
2024-02-21T18:45:09.133Z,1.67
2024-02-21T18:47:36.114Z,2.05
2024-02-21T18:50:03.623Z,1.92
2024-02-21T18:52:30.603Z,2.38
2024-02-21T18:54:58.656Z,2.00
2024-02-21T18:57:25.521Z,2.47
2024-02-21T18:59:52.308Z,3.03
2024-02-21T19:02:19.237Z,2.53
2024-02-21T19:04:46.477Z,2.45
2024-02-21T19:07:14.306Z,2.53
2024-02-21T19:09:41.643Z,2.30
2024-02-21T19:12:10.085Z,2.17
2024-02-21T19:14:38.261Z,2.83
2024-02-21T19:17:05.126Z,2.45
2024-02-21T19:19:31.895Z,2.55
2024-02-21T19:21:58.765Z,2.40
2024-02-21T19:24:25.644Z,2.30
2024-02-21T19:26:52.488Z,2.35
2024-02-21T19:29:19.247Z,1.92
2024-02-21T19:31:46.168Z,2.50
2024-02-21T19:34:13.027Z,2.20
2024-02-21T19:36:39.884Z,2.22
2024-02-21T19:39:09.874Z,2.05
2024-02-21T19:41:36.600Z,2.28
2024-02-21T19:44:03.476Z,2.20
2024-02-21T19:46:30.377Z,2.17
2024-02-21T19:48:57.449Z,2.58
2024-02-21T19:51:25.419Z,3.03
2024-02-21T19:54:01.757Z,2.75
2024-02-21T19:56:36.915Z,2.60
2024-02-21T19:59:06.140Z,3.00
2024-02-21T20:01:33.372Z,3.15
2024-02-21T20:04:02.476Z,2.75
2024-02-21T20:06:29.214Z,2.50
2024-02-21T20:08:58.986Z,2.55
2024-02-21T20:11:30.440Z,2.90
2024-02-21T20:13:57.689Z,2.93
2024-02-21T20:16:24.584Z,2.85
2024-02-21T20:18:51.758Z,3.13
2024-02-21T20:21:19.000Z,2.80
2024-02-21T20:23:45.898Z,3.20
2024-02-21T20:26:12.661Z,3.00
2024-02-21T20:28:39.577Z,2.53
2024-02-21T20:31:06.271Z,2.40
2024-02-21T20:33:33.043Z,2.75
2024-02-21T20:36:00.334Z,2.72
2024-02-21T20:38:27.077Z,3.92
2024-02-21T20:40:54.671Z,3.13
2024-02-21T20:43:22.185Z,2.97
2024-02-21T20:45:48.914Z,2.95
2024-02-21T20:48:15.781Z,3.58
2024-02-21T20:50:42.592Z,3.30
2024-02-21T20:53:09.491Z,2.22
2024-02-21T20:55:36.391Z,2.00
2024-02-21T20:58:03.165Z,3.22
2024-02-21T21:00:29.851Z,2.95
2024-02-21T21:02:56.617Z,3.28
2024-02-21T21:05:25.514Z,3.17
2024-02-21T21:07:52.443Z,3.33
2024-02-21T21:10:19.412Z,3.25
2024-02-21T21:12:46.145Z,3.15
2024-02-21T21:15:13.302Z,3.30
2024-02-21T21:17:40.137Z,2.65
2024-02-21T21:20:11.316Z,3.58
2024-02-21T21:22:40.680Z,2.97
2024-02-21T21:25:09.364Z,3.25
2024-02-21T21:27:36.471Z,2.63
2024-02-21T21:30:04.839Z,2.92
2024-02-21T21:32:31.692Z,2.38
2024-02-21T21:34:58.580Z,2.53
2024-02-21T21:37:25.378Z,3.38
2024-02-21T21:39:56.128Z,3.05
2024-02-21T21:42:23.520Z,2.42
2024-02-21T21:44:50.308Z,2.25
2024-02-21T21:47:17.788Z,4.00
2024-02-21T21:49:44.662Z,3.20
2024-02-21T21:52:12.600Z,2.72
2024-02-21T21:54:40.888Z,3.00
2024-02-21T21:57:07.689Z,2.85
2024-02-21T21:59:34.557Z,3.33
2024-02-21T22:02:02.733Z,2.55
2024-02-21T22:04:29.610Z,3.03
2024-02-21T22:06:56.393Z,3.00
2024-02-21T22:09:23.716Z,2.08
2024-02-21T22:11:50.523Z,2.33
2024-02-21T22:14:17.251Z,2.40
2024-02-21T22:16:44.921Z,3.13
2024-02-21T22:19:12.057Z,2.60
2024-02-21T22:21:38.884Z,2.60
2024-02-21T22:24:05.936Z,2.72
2024-02-21T22:26:32.572Z,3.00
2024-02-21T22:28:59.353Z,2.70
2024-02-21T22:31:26.240Z,2.42
2024-02-21T22:33:54.189Z,2.88
2024-02-21T22:36:23.001Z,2.40
2024-02-21T22:38:51.771Z,1.98
2024-02-21T22:41:20.457Z,2.03
2024-02-21T22:43:47.467Z,1.80
2024-02-21T22:46:14.453Z,2.33
2024-02-21T22:48:41.293Z,2.22
2024-02-21T22:51:08.274Z,1.83
2024-02-21T22:53:35.012Z,2.22
2024-02-21T22:56:01.771Z,2.53
2024-02-21T22:58:28.625Z,2.92
2024-02-21T23:00:55.476Z,2.17
2024-02-21T23:03:22.813Z,2.78
2024-02-21T23:05:49.825Z,2.20
2024-02-21T23:08:16.760Z,2.10
2024-02-21T23:10:47.121Z,2.05
2024-02-21T23:13:14.568Z,2.38
2024-02-21T23:15:41.391Z,1.92
2024-02-21T23:18:08.064Z,2.33
2024-02-21T23:20:34.815Z,1.20
2024-02-21T23:23:01.649Z,3.35
2024-02-21T23:25:28.457Z,1.90
2024-02-21T23:27:55.159Z,1.40
2024-02-21T23:30:21.946Z,1.20
2024-02-21T23:32:48.776Z,0.82
2024-02-21T23:35:15.784Z,1.60
2024-02-21T23:37:42.574Z,1.38
2024-02-21T23:40:11.630Z,2.53
2024-02-21T23:42:40.552Z,1.55
2024-02-21T23:45:10.499Z,1.10
2024-02-21T23:47:38.269Z,1.38
2024-02-21T23:50:06.372Z,1.10
2024-02-21T23:52:33.212Z,1.08
2024-02-21T23:55:01.850Z,1.52
2024-02-21T23:57:28.617Z,1.50
2024-02-21T23:59:55.586Z,1.58
